Time;durP1;ratioP1;P1;durP2;ratioP2;P2;SDS_P1;SDS_P2;PMS_P1;PMS_P2;Temp;Humidity;BMP_temperature;BMP_pressure;BME280_temperature;BME280_humidity;BME280_pressure;Samples;Min_cycle;Max_cycle;Signal;HPM_P1;HPM_P2
2022/01/13 00:01:30;;;;;;;117.53;46.67;;;3.90;99.90;;;;;;6039624;23;20244;-90
2022/01/13 00:04:28;;;;;;;117.43;45.45;;;3.90;99.90;;;;;;6054646;23;20258;-90
2022/01/13 00:08:01;;;;;;;;;;;;;;;;;;;;;
2022/01/13 00:25:36;;;;;;;;;;;;;;;;;;;;;
2022/01/13 00:28:15;;;;;;;109.15;44.95;;;3.90;99.90;;;;;;5918352;24;20230;-90
2022/01/13 00:37:23;;;;;;;108.05;45.08;;;4.00;99.90;;;;;;6099755;23;20190;-90
2022/01/13 00:40:24;;;;;;;117.60;47.00;;;4.00;99.90;;;;;;6075248;23;20214;-90
2022/01/13 00:49:50;;;;;;;110.47;42.13;;;3.90;99.90;;;;;;6010855;23;20145;-90
2022/01/13 00:52:49;;;;;;;111.18;45.92;;;3.90;99.90;;;;;;5987434;23;20488;-90
2022/01/13 00:58:05;;;;;;;108.80;44.38;;;3.90;99.90;;;;;;6097443;23;20206;-90
2022/01/13 01:04:20;;;;;;;;;;;;;;;;;;;;;
2022/01/13 01:07:25;;;;;;;;;;;;;;;;;;;;;
2022/01/13 01:09:57;;;;;;;110.80;42.63;;;3.90;99.90;;;;;;6038637;23;20234;-90
2022/01/13 01:16:10;;;;;;;105.53;45.03;;;3.80;99.90;;;;;;6011252;23;20176;-90
2022/01/13 01:32:55;;;;;;;112.15;46.70;;;3.80;99.90;;;;;;6071371;23;20175;-89
2022/01/13 01:38:51;;;;;;;111.03;41.33;;;3.90;99.90;;;;;;6096839;23;20198;-90
2022/01/13 01:41:29;;;;;;;108.40;45.35;;;3.80;99.90;;;;;;6075033;23;20597;-89
2022/01/13 01:44:05;;;;;;;113.13;49.30;;;3.80;99.90;;;;;;6075540;23;20170;-89
2022/01/13 01:47:25;;;;;;;114.70;44.13;;;3.80;99.90;;;;;;6074820;23;20147;-89
2022/01/13 01:50:17;;;;;;;119.35;47.67;;;3.80;99.90;;;;;;6071605;23;20143;-89
2022/01/13 01:56:43;;;;;;;109.07;45.45;;;3.70;99.90;;;;;;6100561;23;20620;-89
2022/01/13 01:59:27;;;;;;;112.35;42.60;;;3.70;99.90;;;;;;6038845;23;20211;-89
2022/01/13 02:02:30;;;;;;;121.25;45.40;;;3.70;99.90;;;;;;6016314;23;20144;-89
2022/01/13 02:05:38;;;;;;;115.15;43.08;;;3.70;99.90;;;;;;6015077;23;20615;-89
2022/01/13 02:08:34;;;;;;;112.07;45.20;;;3.70;99.90;;;;;;6036851;23;20667;-89
2022/01/13 02:11:43;;;;;;;;;;;;;;;;;;;;;
2022/01/13 02:14:34;;;;;;;111.22;38.28;;;3.80;99.90;;;;;;6096563;23;20239;-89
2022/01/13 02:17:39;;;;;;;111.30;41.10;;;3.80;99.90;;;;;;6074335;23;20183;-89
2022/01/13 02:20:51;;;;;;;113.78;40.50;;;3.80;99.90;;;;;;6076772;23;20210;-89
2022/01/13 02:23:48;;;;;;;;;;;;;;;;;;;;;
2022/01/13 02:26:44;;;;;;;;;;;;;;;;;;;;;
2022/01/13 02:32:25;;;;;;;108.30;44.92;;;3.70;99.90;;;;;;6102065;23;20166;-89
2022/01/13 02:35:21;;;;;;;116.20;45.70;;;3.70;99.90;;;;;;6102470;23;20219;-90
2022/01/13 02:38:28;;;;;;;;;;;;;;;;;;;;;
2022/01/13 02:41:18;;;;;;;118.05;43.60;;;3.70;99.90;;;;;;6102511;23;20226;-89
2022/01/13 02:53:28;;;;;;;109.68;44.53;;;3.60;99.90;;;;;;6091060;23;20210;-89
2022/01/13 02:58:54;;;;;;;116.32;49.03;;;3.50;99.90;;;;;;6132075;23;20201;-89
2022/01/13 03:02:04;;;;;;;106.10;43.05;;;3.50;99.90;;;;;;6105248;23;20147;-89
2022/01/13 03:05:01;;;;;;;121.75;47.05;;;3.50;99.90;;;;;;5984472;23;20652;-89
2022/01/13 03:07:33;;;;;;;111.35;43.60;;;3.40;99.90;;;;;;6072669;23;20152;-89
2022/01/13 03:10:28;;;;;;;115.00;49.50;;;3.50;99.90;;;;;;6075906;23;20585;-89
2022/01/13 03:13:10;;;;;;;118.85;50.72;;;3.50;99.90;;;;;;6071245;23;20152;-89
2022/01/13 03:16:16;;;;;;;115.95;53.78;;;3.50;99.90;;;;;;6099180;23;20171;-89
2022/01/13 03:19:24;;;;;;;;;;;;;;;;;;;;;
2022/01/13 03:22:04;;;;;;;;;;;;;;;;;;;;;
2022/01/13 03:25:09;;;;;;;;;;;;;;;;;;;;;
2022/01/13 03:28:27;;;;;;;111.20;41.47;;;3.30;99.90;;;;;;6102516;23;20163;-89
2022/01/13 03:31:07;;;;;;;116.97;42.72;;;3.30;99.90;;;;;;6099046;23;20148;-89
2022/01/13 03:34:17;;;;;;;116.22;48.40;;;3.20;99.90;;;;;;6100759;23;20143;-89
2022/01/13 03:37:17;;;;;;;116.28;41.00;;;3.10;99.90;;;;;;6101214;23;20179;-89
2022/01/13 03:40:07;;;;;;;118.28;45.60;;;3.10;99.90;;;;;;6101867;23;20143;-89
2022/01/13 03:42:57;;;;;;;102.93;37.42;;;3.10;99.90;;;;;;6101763;23;20500;-89
2022/01/13 03:45:40;;;;;;;104.80;40.08;;;3.10;99.90;;;;;;6099664;23;20167;-89
2022/01/13 03:48:21;;;;;;;115.35;49.10;;;3.10;99.90;;;;;;6094316;23;20151;-89
2022/01/13 03:51:26;;;;;;;;;;;;;;;;;;;;;
2022/01/13 03:54:29;;;;;;;120.82;45.10;;;3.10;99.90;;;;;;6102097;23;20253;-89
2022/01/13 03:57:46;;;;;;;113.80;46.67;;;3.10;99.90;;;;;;6070521;23;20187;-89
2022/01/13 04:00:49;;;;;;;110.65;53.65;;;3.10;99.90;;;;;;6092999;23;20199;-89
2022/01/13 04:04:06;;;;;;;122.85;55.38;;;3.10;99.90;;;;;;6101601;23;20150;-89
2022/01/13 04:07:33;;;;;;;117.97;57.05;;;3.20;99.90;;;;;;6075516;23;20160;-89
2022/01/13 04:10:39;;;;;;;110.20;51.13;;;3.10;99.90;;;;;;6074620;23;20170;-89
2022/01/13 04:16:46;;;;;;;121.53;55.85;;;3.20;99.90;;;;;;6100966;23;20225;-89
2022/01/13 04:19:47;;;;;;;111.47;55.60;;;3.20;99.90;;;;;;6092468;23;20158;-89
2022/01/13 04:22:52;;;;;;;;;;;;;;;;;;;;;
2022/01/13 04:26:17;;;;;;;118.97;53.78;;;3.30;99.90;;;;;;6065094;23;20250;-89
2022/01/13 04:29:36;;;;;;;116.78;54.05;;;3.30;99.90;;;;;;6098841;23;20652;-89
2022/01/13 04:32:37;;;;;;;117.53;53.70;;;3.30;99.90;;;;;;6045519;23;20147;-89
2022/01/13 04:35:32;;;;;;;118.63;59.92;;;3.20;99.90;;;;;;6099057;23;20174;-89
2022/01/13 04:38:27;;;;;;;;;;;;;;;;;;;;;
2022/01/13 04:41:25;;;;;;;;;;;;;;;;;;;;;
2022/01/13 04:44:43;;;;;;;;;;;;;;;;;;;;;
2022/01/13 04:48:26;;;;;;;;;;;;;;;;;;;;;
2022/01/13 04:51:07;;;;;;;130.98;54.30;;;3.40;99.90;;;;;;6091640;23;20155;-89
2022/01/13 04:53:59;;;;;;;120.72;51.38;;;3.30;99.90;;;;;;6066604;23;20178;-89
2022/01/13 04:57:32;;;;;;;;;;;;;;;;;;;;;
2022/01/13 05:00:34;;;;;;;119.28;49.38;;;3.30;99.90;;;;;;6100828;23;20241;-89
2022/01/13 05:03:56;;;;;;;;;;;;;;;;;;;;;
2022/01/13 05:06:51;;;;;;;117.00;48.28;;;3.30;99.90;;;;;;6101488;23;20230;-89
2022/01/13 05:09:20;;;;;;;135.15;60.53;;;3.30;99.90;;;;;;6100221;23;20649;-89
2022/01/13 05:12:29;;;;;;;;;;;;;;;;;;;;;
2022/01/13 05:24:32;;;;;;;130.82;71.40;;;3.00;99.90;;;;;;6012174;23;20185;-88
2022/01/13 05:27:46;;;;;;;135.52;65.22;;;3.00;99.90;;;;;;5899579;24;20159;-88
2022/01/13 05:31:17;;;;;;;;;;;;;;;;;;;;;
2022/01/13 06:01:47;;;;;;;115.45;55.05;;;3.10;99.90;;;;;;6071497;23;20151;-90
2022/01/13 06:04:52;;;;;;;132.68;53.60;;;3.10;99.90;;;;;;5889234;24;20247;-91
2022/01/13 06:08:00;;;;;;;;;;;;;;;;;;;;;
2022/01/13 06:10:45;;;;;;;119.63;52.25;;;3.10;99.90;;;;;;5817951;24;20248;-91
2022/01/13 06:13:27;;;;;;;126.45;55.30;;;3.00;99.90;;;;;;5848105;24;20189;-91
2022/01/13 06:16:41;;;;;;;123.88;58.28;;;3.00;99.90;;;;;;5905705;24;20220;-90
2022/01/13 06:23:07;;;;;;;123.72;44.28;;;3.10;99.90;;;;;;5930217;24;20143;-90
2022/01/13 06:26:46;;;;;;;124.88;51.80;;;3.00;99.90;;;;;;5867062;24;20178;-90
2022/01/13 06:29:35;;;;;;;122.25;52.00;;;3.00;99.90;;;;;;5890179;24;20159;-90
2022/01/13 06:33:40;;;;;;;121.00;49.55;;;3.00;99.90;;;;;;5928591;24;20162;-90
2022/01/13 06:35:51;;;;;;;127.13;49.08;;;3.00;99.90;;;;;;5940992;24;20171;-90
2022/01/13 06:38:51;;;;;;;123.57;55.25;;;2.90;99.90;;;;;;5957302;24;20192;-90
2022/01/13 06:45:13;;;;;;;133.55;57.17;;;2.80;99.90;;;;;;5994932;23;20204;-87
2022/01/13 06:48:14;;;;;;;;;;;;;;;;;;;;;
2022/01/13 07:06:33;;;;;;;131.00;63.38;;;2.60;99.90;;;;;;6067288;23;20295;-86
2022/01/13 07:13:27;;;;;;;123.30;59.25;;;2.50;99.90;;;;;;5951730;24;20293;-86
2022/01/13 07:26:46;;;;;;;126.57;57.97;;;2.40;99.90;;;;;;6039268;23;20203;-87
2022/01/13 07:29:12;;;;;;;140.20;65.93;;;2.40;99.90;;;;;;6075089;23;20144;-85
2022/01/13 07:31:38;;;;;;;130.70;62.77;;;2.40;99.90;;;;;;6075887;23;20208;-84
2022/01/13 07:34:05;;;;;;;134.37;77.37;;;2.50;99.90;;;;;;6076324;23;20160;-84
2022/01/13 07:36:32;;;;;;;123.40;66.03;;;2.50;99.90;;;;;;6075355;23;20866;-83
2022/01/13 07:38:57;;;;;;;140.60;81.57;;;2.60;99.90;;;;;;6075739;23;20170;-83
2022/01/13 07:41:24;;;;;;;140.60;82.17;;;2.40;99.90;;;;;;6049810;23;20587;-84
2022/01/13 07:43:54;;;;;;;142.95;82.40;;;2.50;99.90;;;;;;6075892;23;20498;-84
2022/01/13 07:46:21;;;;;;;126.97;65.03;;;2.40;99.90;;;;;;6049741;23;20152;-86
2022/01/13 07:48:47;;;;;;;123.15;66.82;;;2.40;99.90;;;;;;6076667;23;20151;-84
2022/01/13 07:51:13;;;;;;;126.63;62.97;;;2.40;99.90;;;;;;6076205;23;20463;-83
2022/01/13 07:53:42;;;;;;;124.83;64.73;;;2.40;99.90;;;;;;6076219;23;20198;-84
2022/01/13 07:56:08;;;;;;;118.32;62.88;;;2.30;99.90;;;;;;6077210;23;20148;-84
2022/01/13 07:58:35;;;;;;;118.33;69.30;;;2.20;99.90;;;;;;6075280;23;20208;-86
2022/01/13 08:01:02;;;;;;;127.38;65.20;;;2.20;99.90;;;;;;6051788;23;20152;-83
2022/01/13 08:03:28;;;;;;;131.38;65.80;;;2.30;99.90;;;;;;6050326;23;20527;-83
2022/01/13 08:06:01;;;;;;;134.83;69.63;;;2.40;99.90;;;;;;6076501;23;20196;-86
2022/01/13 08:08:27;;;;;;;132.60;66.68;;;2.40;99.90;;;;;;6076026;23;20357;-85
2022/01/13 08:10:53;;;;;;;125.53;64.10;;;2.30;99.90;;;;;;6076075;23;20171;-85
2022/01/13 08:13:19;;;;;;;128.43;69.13;;;2.30;99.90;;;;;;6076273;23;20144;-86
2022/01/13 08:15:55;;;;;;;132.17;71.47;;;2.20;99.90;;;;;;6075866;23;20396;-86
2022/01/13 08:21:08;;;;;;;125.10;55.88;;;2.30;99.90;;;;;;6076883;23;20479;-86
2022/01/13 08:23:44;;;;;;;;;;;;;;;;;;;;;
2022/01/13 08:26:11;;;;;;;133.80;71.10;;;2.40;99.90;;;;;;6076079;23;20416;-86
2022/01/13 08:28:40;;;;;;;122.75;67.80;;;2.30;99.90;;;;;;6051278;23;20215;-85
2022/01/13 08:31:06;;;;;;;120.32;73.50;;;2.30;99.90;;;;;;6075476;23;20168;-86
2022/01/13 08:33:34;;;;;;;120.07;69.57;;;2.30;99.90;;;;;;6075383;23;20231;-86
2022/01/13 08:36:02;;;;;;;126.22;63.70;;;2.40;99.90;;;;;;6075441;23;20140;-85
2022/01/13 08:38:34;;;;;;;112.63;61.35;;;2.50;99.90;;;;;;6075771;23;20167;-86
2022/01/13 08:41:00;;;;;;;124.22;72.22;;;2.50;99.90;;;;;;6049384;23;20219;-86
2022/01/13 08:43:27;;;;;;;120.00;72.60;;;2.50;99.90;;;;;;6076074;23;20140;-86
2022/01/13 08:45:54;;;;;;;125.78;81.20;;;2.40;99.90;;;;;;6050922;23;20388;-85
2022/01/13 08:48:19;;;;;;;115.93;69.03;;;2.40;99.90;;;;;;6075711;23;20208;-86
2022/01/13 08:50:46;;;;;;;114.97;68.00;;;2.40;99.90;;;;;;6075299;23;20144;-84
2022/01/13 08:53:19;;;;;;;124.40;71.20;;;2.50;99.90;;;;;;6075677;23;20579;-86
2022/01/13 08:55:46;;;;;;;121.10;66.35;;;2.50;99.90;;;;;;6075608;23;20640;-86
2022/01/13 08:58:11;;;;;;;120.00;72.38;;;2.50;99.90;;;;;;6075238;23;20164;-85
2022/01/13 09:00:37;;;;;;;118.60;70.93;;;2.50;99.90;;;;;;6076304;23;20511;-86
2022/01/13 09:03:07;;;;;;;123.43;77.10;;;2.50;99.90;;;;;;6049779;23;20176;-86
2022/01/13 09:05:34;;;;;;;121.20;76.00;;;2.60;99.90;;;;;;6074310;23;20443;-86
2022/01/13 09:08:10;;;;;;;115.72;66.75;;;2.60;99.90;;;;;;6048806;23;20598;-86
2022/01/13 09:10:41;;;;;;;117.50;78.00;;;2.60;99.90;;;;;;6074657;23;20132;-85
2022/01/13 09:13:12;;;;;;;121.00;75.72;;;2.70;99.90;;;;;;6074372;23;20140;-85
2022/01/13 09:15:47;;;;;;;118.15;68.60;;;2.60;99.90;;;;;;6048185;23;20182;-85
2022/01/13 09:18:18;;;;;;;121.57;68.80;;;2.70;99.90;;;;;;6074261;23;20166;-85
2022/01/13 09:21:40;;;;;;;116.53;71.22;;;2.70;99.90;;;;;;6048460;23;20176;-86
2022/01/13 09:23:41;;;;;;;114.13;62.17;;;2.70;99.90;;;;;;6063920;23;20640;-86
2022/01/13 09:26:18;;;;;;;112.60;67.70;;;2.80;99.90;;;;;;6049531;23;20175;-85
2022/01/13 09:28:44;;;;;;;109.30;63.67;;;2.80;99.90;;;;;;6049583;23;20384;-85
2022/01/13 09:31:10;;;;;;;109.43;56.27;;;2.80;99.90;;;;;;6075002;23;20144;-86
2022/01/13 09:33:39;;;;;;;114.43;61.20;;;2.90;99.90;;;;;;6048952;23;20152;-86
2022/01/13 09:36:13;;;;;;;112.15;69.95;;;2.80;99.90;;;;;;6049433;23;20144;-85
2022/01/13 09:38:45;;;;;;;104.60;55.47;;;2.80;99.90;;;;;;6049192;23;20168;-85
2022/01/13 09:41:15;;;;;;;113.72;60.15;;;2.90;99.90;;;;;;6050291;23;20144;-85
2022/01/13 09:43:44;;;;;;;108.28;58.55;;;2.90;99.90;;;;;;6049688;23;20140;-86
2022/01/13 09:46:10;;;;;;;106.43;49.83;;;2.90;99.90;;;;;;6074754;23;20223;-85
2022/01/13 09:48:39;;;;;;;105.60;51.87;;;2.90;99.90;;;;;;6074971;23;20517;-85
2022/01/13 09:51:06;;;;;;;106.72;44.92;;;2.90;99.90;;;;;;6074824;23;20471;-86
2022/01/13 09:53:32;;;;;;;105.70;47.00;;;3.00;99.90;;;;;;6075984;23;20482;-85
2022/01/13 09:56:02;;;;;;;110.63;46.38;;;3.20;99.90;;;;;;6049911;23;20553;-86
2022/01/13 09:58:43;;;;;;;;;;;;;;;;;;;;;
2022/01/13 10:01:16;;;;;;;107.53;38.67;;;3.40;99.90;;;;;;6071756;23;20223;-87
2022/01/13 10:03:42;;;;;;;102.22;47.10;;;3.40;99.90;;;;;;6074024;23;20211;-85
2022/01/13 10:06:14;;;;;;;107.05;41.92;;;3.10;99.90;;;;;;6074406;23;20146;-85
2022/01/13 10:08:45;;;;;;;100.38;40.28;;;3.20;99.90;;;;;;6073796;23;20148;-86
2022/01/13 10:11:35;;;;;;;108.80;46.70;;;3.30;99.90;;;;;;6074470;23;20160;-86
2022/01/13 10:16:56;;;;;;;99.25;40.53;;;3.40;99.90;;;;;;6066650;23;20483;-86
2022/01/13 10:19:33;;;;;;;103.78;43.58;;;3.40;99.90;;;;;;6074110;23;20148;-85
2022/01/13 10:22:06;;;;;;;107.10;38.03;;;3.40;99.90;;;;;;6048885;23;20148;-86
2022/01/13 10:24:34;;;;;;;99.00;41.08;;;3.40;99.90;;;;;;6050187;23;20191;-86
2022/01/13 10:27:15;;;;;;;107.85;43.05;;;3.50;99.90;;;;;;6048407;23;20178;-86
2022/01/13 10:30:26;;;;;;;111.07;45.80;;;3.40;99.90;;;;;;6074660;23;20137;-86
2022/01/13 10:33:18;;;;;;;103.57;38.10;;;3.50;99.90;;;;;;6032567;23;20223;-86
2022/01/13 10:35:56;;;;;;;105.47;43.45;;;3.70;99.90;;;;;;6048900;23;20630;-86
2022/01/13 10:38:50;;;;;;;107.15;37.70;;;3.70;99.90;;;;;;6047902;23;20654;-86
2022/01/13 10:41:50;;;;;;;111.18;40.05;;;3.70;99.90;;;;;;6075708;23;20128;-86
2022/01/13 10:44:22;;;;;;;106.15;37.88;;;3.80;99.90;;;;;;6076851;23;20167;-86
2022/01/13 10:47:20;;;;;;;107.22;44.97;;;3.80;99.90;;;;;;6048227;23;20159;-86
2022/01/13 10:49:52;;;;;;;111.05;49.72;;;3.70;99.90;;;;;;6050440;23;20151;-86
2022/01/13 10:52:34;;;;;;;110.30;55.80;;;3.60;99.90;;;;;;6051571;23;20207;-86
2022/01/13 10:55:08;;;;;;;116.60;48.70;;;3.60;99.90;;;;;;6051418;23;20644;-86
2022/01/13 10:57:46;;;;;;;107.88;42.72;;;3.80;99.90;;;;;;6077269;23;20164;-86
2022/01/13 11:00:25;;;;;;;104.25;40.47;;;3.90;99.90;;;;;;6076529;23;20452;-86
2022/01/13 11:03:12;;;;;;;115.72;42.03;;;3.90;99.90;;;;;;6077277;23;20148;-86
2022/01/13 11:05:51;;;;;;;109.30;43.47;;;3.90;99.90;;;;;;6051508;23;20195;-86
2022/01/13 11:08:44;;;;;;;105.07;38.50;;;3.90;99.90;;;;;;6051560;23;20163;-86
2022/01/13 11:11:33;;;;;;;112.38;37.45;;;3.90;99.90;;;;;;6051769;23;20231;-85
2022/01/13 11:14:08;;;;;;;109.20;44.05;;;4.10;99.90;;;;;;6076953;23;20215;-86
2022/01/13 11:17:14;;;;;;;111.22;46.53;;;4.10;99.90;;;;;;6051381;23;20158;-87
2022/01/13 11:19:56;;;;;;;110.57;53.15;;;4.30;99.90;;;;;;6076704;23;20178;-87
2022/01/13 11:22:39;;;;;;;114.28;64.28;;;4.40;99.90;;;;;;6051373;23;20136;-86
2022/01/13 11:25:14;;;;;;;116.05;59.75;;;4.50;99.90;;;;;;6077257;23;20176;-84
2022/01/13 11:28:12;;;;;;;109.57;48.83;;;4.70;99.90;;;;;;6052436;23;20167;-85
2022/01/13 11:30:42;;;;;;;116.90;44.20;;;4.80;99.90;;;;;;6036467;23;20156;-85
2022/01/13 11:33:08;;;;;;;102.60;31.33;;;4.90;99.90;;;;;;6075704;23;20179;-86
2022/01/13 11:35:55;;;;;;;114.47;38.25;;;5.00;99.90;;;;;;6072226;23;20205;-85
2022/01/13 11:38:24;;;;;;;97.60;30.23;;;4.90;99.90;;;;;;6050886;23;20594;-87
2022/01/13 11:40:59;;;;;;;100.57;30.48;;;4.90;99.90;;;;;;6050480;23;20598;-85
2022/01/13 11:43:38;;;;;;;105.18;32.38;;;5.00;99.90;;;;;;6076136;23;20132;-85
2022/01/13 11:46:41;;;;;;;101.75;38.42;;;5.00;99.90;;;;;;6022267;23;20156;-85
2022/01/13 11:49:20;;;;;;;93.43;26.95;;;5.00;99.90;;;;;;6044359;23;20580;-85
2022/01/13 11:52:01;;;;;;;102.30;38.70;;;4.70;99.90;;;;;;6046222;23;20143;-86
2022/01/13 11:54:34;;;;;;;105.70;45.45;;;4.80;99.90;;;;;;6021615;23;20169;-86
2022/01/13 11:57:19;;;;;;;98.30;26.70;;;4.80;99.90;;;;;;6047089;23;20160;-86
2022/01/13 12:00:00;;;;;;;99.63;24.33;;;4.70;99.90;;;;;;6047036;23;20151;-87
2022/01/13 12:02:36;;;;;;;101.57;26.90;;;4.70;99.90;;;;;;6021710;23;20159;-84
2022/01/13 12:05:16;;;;;;;104.93;32.58;;;4.70;99.90;;;;;;6021528;23;20172;-86
2022/01/13 12:07:53;;;;;;;103.75;40.10;;;4.70;99.90;;;;;;6047524;23;20133;-86
2022/01/13 12:10:40;;;;;;;102.97;37.60;;;4.70;99.90;;;;;;6047475;23;20132;-85
2022/01/13 12:13:27;;;;;;;101.28;37.35;;;4.70;99.90;;;;;;6035964;23;20517;-86
2022/01/13 12:15:56;;;;;;;99.75;33.50;;;4.70;99.90;;;;;;6046896;23;20148;-85
2022/01/13 12:19:09;;;;;;;111.55;49.92;;;4.80;99.90;;;;;;6022556;23;20180;-86
2022/01/13 12:21:56;;;;;;;106.70;44.67;;;4.70;99.90;;;;;;5964815;24;20154;-86
2022/01/13 12:24:48;;;;;;;111.78;40.55;;;4.80;99.90;;;;;;6023123;23;20255;-86
2022/01/13 12:28:06;;;;;;;102.47;33.60;;;4.80;99.90;;;;;;6022836;23;20176;-86
2022/01/13 12:30:37;;;;;;;103.47;30.10;;;4.80;99.90;;;;;;6034079;23;20602;-87
2022/01/13 12:33:07;;;;;;;103.32;34.65;;;4.90;99.90;;;;;;6045486;23;20148;-86
2022/01/13 12:35:42;;;;;;;100.85;37.97;;;4.90;99.90;;;;;;6047555;23;20263;-86
2022/01/13 12:38:11;;;;;;;105.90;29.00;;;4.90;99.90;;;;;;6047477;23;20487;-86
2022/01/13 12:40:45;;;;;;;94.90;25.25;;;5.00;99.90;;;;;;6047319;23;20467;-86
2022/01/13 12:46:13;;;;;;;101.25;25.65;;;5.10;99.90;;;;;;6056322;23;20133;-85
2022/01/13 12:48:42;;;;;;;92.03;26.05;;;5.00;99.90;;;;;;6047146;23;20602;-86
2022/01/13 12:51:13;;;;;;;95.80;31.80;;;5.00;99.90;;;;;;6022005;23;20228;-86
2022/01/13 12:53:43;;;;;;;94.03;30.05;;;5.00;99.90;;;;;;6047585;23;20137;-85
2022/01/13 12:56:45;;;;;;;99.03;34.92;;;5.00;99.90;;;;;;6021326;23;20196;-86
2022/01/13 12:59:17;;;;;;;93.20;22.85;;;5.00;99.90;;;;;;5987834;23;20165;-86
2022/01/13 13:01:55;;;;;;;;;;;;;;;;;;;;;
2022/01/13 13:04:34;;;;;;;100.75;49.22;;;5.10;99.90;;;;;;5958816;24;20217;-86
2022/01/13 13:07:59;;;;;;;;;;;;;;;;;;;;;
2022/01/13 13:10:34;;;;;;;93.53;25.63;;;5.20;99.90;;;;;;6041582;23;20180;-86
2022/01/13 13:20:26;;;;;;;;;;;;;;;;;;;;;
2022/01/13 13:23:50;;;;;;;107.85;40.83;;;5.30;99.90;;;;;;6047557;23;20163;-86
2022/01/13 13:29:38;;;;;;;96.85;39.58;;;5.30;99.90;;;;;;6070219;23;20144;-89
2022/01/13 13:32:41;;;;;;;104.07;44.75;;;5.40;99.90;;;;;;6038736;23;20153;-89
2022/01/13 13:36:01;;;;;;;104.18;43.75;;;5.40;99.90;;;;;;6041671;23;20534;-90
2022/01/13 13:39:20;;;;;;;;;;;;;;;;;;;;;
2022/01/13 13:45:46;;;;;;;94.32;29.45;;;5.40;99.90;;;;;;6065419;23;20222;-89
2022/01/13 13:48:25;;;;;;;97.53;32.72;;;5.40;99.90;;;;;;6045026;23;20215;-90
2022/01/13 13:51:42;;;;;;;97.22;37.75;;;5.40;99.90;;;;;;6044468;23;20159;-90
2022/01/13 13:55:07;;;;;;;;;;;;;;;;;;;;;
2022/01/13 14:01:54;;;;;;;91.28;20.00;;;5.60;99.90;;;;;;6024064;23;20625;-90
2022/01/13 14:04:59;;;;;;;93.25;22.80;;;5.60;99.90;;;;;;6038014;23;20175;-90
2022/01/13 14:17:54;;;;;;;;;;;;;;;;;;;;;
2022/01/13 14:20:41;;;;;;;86.60;22.17;;;5.70;99.90;;;;;;6130255;23;20551;-90
2022/01/13 14:23:50;;;;;;;89.85;24.50;;;5.70;99.90;;;;;;6101664;23;20532;-90
2022/01/13 14:26:41;;;;;;;91.50;26.85;;;5.70;99.90;;;;;;6075528;23;20163;-90
2022/01/13 14:29:36;;;;;;;;;;;;;;;;;;;;;
2022/01/13 14:32:30;;;;;;;98.40;36.28;;;5.70;99.90;;;;;;6101788;23;20242;-90
2022/01/13 14:35:45;;;;;;;;;;;;;;;;;;;;;
2022/01/13 14:42:59;;;;;;;93.00;23.27;;;5.80;99.90;;;;;;6100995;23;20152;-90
2022/01/13 14:49:40;;;;;;;88.05;23.23;;;5.80;99.90;;;;;;6048830;23;20632;-90
2022/01/13 15:03:03;;;;;;;92.80;29.83;;;5.60;99.90;;;;;;6077396;23;20195;-90
2022/01/13 15:06:18;;;;;;;88.60;23.50;;;5.60;99.90;;;;;;6014221;23;20173;-90
2022/01/13 15:09:28;;;;;;;90.30;22.23;;;5.60;99.90;;;;;;5995495;23;20164;-90
2022/01/13 15:13:09;;;;;;;90.30;26.13;;;5.50;99.90;;;;;;6006886;23;20153;-90
2022/01/13 15:15:57;;;;;;;86.70;22.52;;;5.50;99.90;;;;;;5901297;24;20642;-90
2022/01/13 15:19:09;;;;;;;92.13;21.58;;;5.40;99.90;;;;;;5942199;23;20527;-90
2022/01/13 15:22:00;;;;;;;90.55;28.08;;;5.40;99.90;;;;;;5989552;23;20153;-90
2022/01/13 15:25:42;;;;;;;86.00;25.15;;;5.40;99.90;;;;;;5989188;23;20493;-91
2022/01/13 15:32:44;;;;;;;;;;;;;;;;;;;;;
2022/01/13 15:36:00;;;;;;;88.15;22.58;;;5.20;99.90;;;;;;5846265;24;20256;-91
2022/01/13 15:42:48;;;;;;;;;;;;;;;;;;;;;
2022/01/13 15:49:36;;;;;;;88.20;25.23;;;5.00;99.90;;;;;;5899908;24;20155;-90
2022/01/13 15:52:37;;;;;;;85.78;26.13;;;5.00;99.90;;;;;;5851015;24;20148;-90
2022/01/13 16:02:32;;;;;;;85.90;23.48;;;4.80;99.90;;;;;;6076236;23;20158;-88
2022/01/13 16:11:04;;;;;;;;;;;;;;;;;;;;;
2022/01/13 16:17:49;;;;;;;82.72;22.77;;;4.50;99.90;;;;;;6102764;23;20523;-90
2022/01/13 16:35:00;;;;;;;;;;;;;;;;;;;;;
2022/01/13 16:42:01;;;;;;;95.10;37.20;;;4.30;99.90;;;;;;5819565;24;20192;-90
2022/01/13 16:49:16;;;;;;;89.88;38.55;;;4.20;99.90;;;;;;5844229;24;20670;-90
2022/01/13 17:00:43;;;;;;;100.60;51.33;;;3.80;99.90;;;;;;6071893;23;20254;-89
2022/01/13 17:03:41;;;;;;;93.63;42.58;;;3.80;99.90;;;;;;6069351;23;20204;-89
2022/01/13 17:06:25;;;;;;;93.40;41.88;;;3.70;99.90;;;;;;6015040;23;20148;-89
2022/01/13 17:09:14;;;;;;;92.40;36.22;;;3.60;99.90;;;;;;6015136;23;20156;-89
2022/01/13 17:11:50;;;;;;;92.72;32.65;;;3.60;99.90;;;;;;6014958;23;20187;-89
2022/01/13 17:14:26;;;;;;;98.45;29.95;;;3.60;99.90;;;;;;6014837;23;20182;-89
2022/01/13 17:17:43;;;;;;;;;;;;;;;;;;;;;
2022/01/13 17:20:40;;;;;;;94.75;25.25;;;3.40;99.90;;;;;;6040578;23;20220;-89
2022/01/13 17:23:27;;;;;;;90.60;28.92;;;3.40;99.90;;;;;;6014047;23;20603;-89
2022/01/13 17:26:02;;;;;;;88.70;29.67;;;3.40;99.90;;;;;;6014724;23;20183;-89
2022/01/13 17:28:39;;;;;;;88.05;27.92;;;3.40;99.90;;;;;;6040437;23;20459;-89
2022/01/13 17:31:33;;;;;;;96.55;31.13;;;3.30;99.90;;;;;;6014909;23;20159;-89
2022/01/13 17:34:25;;;;;;;89.55;30.08;;;3.20;99.90;;;;;;6026637;23;20169;-89
2022/01/13 17:37:09;;;;;;;89.68;31.77;;;3.20;99.90;;;;;;6025151;23;20156;-89
2022/01/13 17:39:53;;;;;;;96.10;35.97;;;3.10;99.90;;;;;;6014523;23;20148;-89
2022/01/13 17:42:48;;;;;;;90.80;36.65;;;3.10;99.90;;;;;;6041000;23;20132;-89
2022/01/13 17:46:04;;;;;;;93.68;44.22;;;3.10;99.90;;;;;;6039119;23;20164;-89
2022/01/13 17:49:03;;;;;;;95.22;49.90;;;2.90;99.90;;;;;;6040656;23;20199;-89
2022/01/13 17:51:45;;;;;;;95.40;49.40;;;2.90;99.90;;;;;;5924523;24;20159;-89
2022/01/13 17:58:16;;;;;;;;;;;;;;;;;;;;;
2022/01/13 18:04:03;;;;;;;102.88;50.88;;;2.80;99.90;;;;;;5843844;24;20215;-89
2022/01/13 18:06:36;;;;;;;113.70;53.70;;;2.80;99.90;;;;;;5844489;24;20153;-89
2022/01/13 18:12:45;;;;;;;101.93;50.80;;;2.80;99.90;;;;;;5961392;23;20167;-89
2022/01/13 18:15:17;;;;;;;102.78;50.58;;;2.80;99.90;;;;;;6014988;23;20173;-89
2022/01/13 18:17:52;;;;;;;98.05;47.30;;;2.70;99.90;;;;;;6014403;23;20187;-89
2022/01/13 18:21:06;;;;;;;94.78;40.13;;;2.80;99.90;;;;;;6014972;23;20144;-89
2022/01/13 18:28:46;;;;;;;104.45;41.83;;;2.90;99.90;;;;;;6068111;23;20199;-89
2022/01/13 18:31:44;;;;;;;101.38;48.08;;;2.80;99.90;;;;;;6061162;23;20151;-89
2022/01/13 18:36:52;;;;;;;113.45;57.10;;;2.90;99.90;;;;;;6080257;23;20227;-89
2022/01/13 18:42:58;;;;;;;101.95;52.60;;;2.90;99.90;;;;;;5979093;24;20157;-89
2022/01/13 18:45:50;;;;;;;100.50;61.65;;;2.90;99.90;;;;;;6034554;23;20168;-89
2022/01/13 18:48:43;;;;;;;102.63;63.72;;;2.90;99.90;;;;;;6042672;23;20177;-89
2022/01/13 18:51:15;;;;;;;99.78;54.50;;;2.90;99.90;;;;;;6068731;23;20155;-89
2022/01/13 18:53:46;;;;;;;103.28;64.75;;;2.90;99.90;;;;;;6068799;23;20132;-89
2022/01/13 18:56:30;;;;;;;105.97;71.88;;;2.90;99.90;;;;;;6042540;23;20159;-89
2022/01/13 18:59:01;;;;;;;101.90;69.43;;;2.90;99.90;;;;;;6035752;23;20188;-89
2022/01/13 19:05:05;;;;;;;105.95;66.57;;;3.00;99.90;;;;;;6058745;23;20172;-89
2022/01/13 19:07:58;;;;;;;103.95;69.85;;;3.00;99.90;;;;;;6044649;23;20155;-89
2022/01/13 19:14:30;;;;;;;;;;;;;;;;;;;;;
2022/01/13 19:27:03;;;;;;;108.22;57.10;;;3.00;99.90;;;;;;6017019;23;20207;-86
2022/01/13 19:29:49;;;;;;;101.15;66.20;;;3.00;99.90;;;;;;6075026;23;20575;-86
2022/01/13 19:32:30;;;;;;;;;;;;;;;;;;;;;
2022/01/13 19:35:04;;;;;;;105.28;55.00;;;2.90;99.90;;;;;;6076075;23;20199;-87
2022/01/13 19:37:52;;;;;;;103.97;61.17;;;2.80;99.90;;;;;;6049816;23;20270;-85
2022/01/13 19:41:10;;;;;;;95.57;48.85;;;2.70;99.90;;;;;;6045783;23;20222;-86
2022/01/13 19:43:40;;;;;;;97.35;49.33;;;2.70;99.90;;;;;;5991284;23;20156;-85
2022/01/13 19:46:29;;;;;;;108.65;54.90;;;2.50;99.90;;;;;;5991922;23;20150;-86
2022/01/13 19:49:07;;;;;;;97.32;54.20;;;2.50;99.90;;;;;;5991304;23;20213;-87
2022/01/13 19:52:31;;;;;;;98.60;53.13;;;2.40;99.90;;;;;;6015509;23;20157;-85
2022/01/13 19:54:43;;;;;;;101.45;54.13;;;2.30;99.90;;;;;;6034715;23;20203;-86
2022/01/13 19:57:37;;;;;;;102.63;59.15;;;2.20;99.90;;;;;;6074490;23;20511;-85
2022/01/13 20:00:19;;;;;;;99.50;53.30;;;2.20;99.90;;;;;;6047908;23;20144;-86
2022/01/13 20:03:30;;;;;;;;;;;;;;;;;;;;;
2022/01/13 20:06:04;;;;;;;97.95;45.25;;;2.00;99.90;;;;;;6046628;23;20172;-86
2022/01/13 20:08:45;;;;;;;;;;;;;;;;;;;;;
2022/01/13 20:11:46;;;;;;;98.10;51.58;;;1.90;99.90;;;;;;6046854;23;20167;-85
2022/01/13 20:17:26;;;;;;;93.55;41.85;;;1.80;99.90;;;;;;6022804;23;20172;-85